sensor_id;sensor_type;location;lat;lon;timestamp;pressure;altitude;pressure_sealevel;temperature;humidity
30338;BME280;17143;51.888;5.408;2022-10-16T00:00:46;100789.00;;;13.12;100.00
30338;BME280;17143;51.888;5.408;2022-10-16T00:15:48;100801.19;;;13.12;100.00
30338;BME280;17143;51.888;5.408;2022-10-16T00:30:51;100786.91;;;13.05;100.00
30338;BME280;17143;51.888;5.408;2022-10-16T00:45:53;100793.22;;;13.09;100.00
30338;BME280;17143;51.888;5.408;2022-10-16T01:00:55;100803.81;;;13.32;100.00
30338;BME280;17143;51.888;5.408;2022-10-16T01:16:02;100797.50;;;13.48;100.00
30338;BME280;17143;51.888;5.408;2022-10-16T01:31:06;100816.09;;;13.54;100.00
30338;BME280;17143;51.888;5.408;2022-10-16T01:46:13;100798.47;;;13.50;100.00
30338;BME280;17143;51.888;5.408;2022-10-16T02:01:18;100784.19;;;13.42;100.00
30338;BME280;17143;51.888;5.408;2022-10-16T02:16:33;100804.59;;;13.30;100.00
30338;BME280;17143;51.888;5.408;2022-10-16T02:31:41;100802.69;;;13.26;100.00
30338;BME280;17143;51.888;5.408;2022-10-16T02:46:44;100804.44;;;13.27;100.00
30338;BME280;17143;51.888;5.408;2022-10-16T03:01:46;100813.38;;;13.11;100.00
30338;BME280;17143;51.888;5.408;2022-10-16T03:16:48;100818.28;;;13.05;100.00
30338;BME280;17143;51.888;5.408;2022-10-16T03:31:50;100827.75;;;13.02;100.00
30338;BME280;17143;51.888;5.408;2022-10-16T03:46:52;100831.19;;;13.01;100.00
30338;BME280;17143;51.888;5.408;2022-10-16T04:01:54;100840.13;;;13.06;100.00
30338;BME280;17143;51.888;5.408;2022-10-16T04:16:56;100866.13;;;13.03;100.00
30338;BME280;17143;51.888;5.408;2022-10-16T04:31:58;100879.16;;;13.01;100.00
30338;BME280;17143;51.888;5.408;2022-10-16T04:47:00;100896.06;;;12.90;100.00
30338;BME280;17143;51.888;5.408;2022-10-16T05:02:02;100924.03;;;12.73;100.00
30338;BME280;17143;51.888;5.408;2022-10-16T05:17:04;100946.09;;;12.61;100.00
30338;BME280;17143;51.888;5.408;2022-10-16T05:32:06;100973.53;;;12.51;100.00
30338;BME280;17143;51.888;5.408;2022-10-16T05:47:08;100991.28;;;12.58;100.00
30338;BME280;17143;51.888;5.408;2022-10-16T06:02:11;101002.06;;;12.64;100.00
30338;BME280;17143;51.888;5.408;2022-10-16T06:17:14;101023.69;;;12.79;100.00
30338;BME280;17143;51.888;5.408;2022-10-16T06:32:17;101048.78;;;12.94;100.00
30338;BME280;17143;51.888;5.408;2022-10-16T06:47:19;101068.94;;;13.14;100.00
30338;BME280;17143;51.888;5.408;2022-10-16T07:02:21;101097.31;;;13.41;100.00
30338;BME280;17143;51.888;5.408;2022-10-16T07:17:23;101125.09;;;14.15;100.00
30338;BME280;17143;51.888;5.408;2022-10-16T07:32:25;101163.00;;;14.61;100.00
30338;BME280;17143;51.888;5.408;2022-10-16T07:47:27;101163.75;;;15.20;100.00
30338;BME280;17143;51.888;5.408;2022-10-16T08:02:29;101186.88;;;15.72;100.00
30338;BME280;17143;51.888;5.408;2022-10-16T08:17:31;101209.84;;;19.65;91.08
30338;BME280;17143;51.888;5.408;2022-10-16T08:32:33;101231.31;;;21.54;78.28
30338;BME280;17143;51.888;5.408;2022-10-16T08:47:44;101247.53;;;22.35;72.32
30338;BME280;17143;51.888;5.408;2022-10-16T09:02:53;101267.34;;;22.60;69.79
30338;BME280;17143;51.888;5.408;2022-10-16T09:18:00;101276.69;;;22.98;67.02
30338;BME280;17143;51.888;5.408;2022-10-16T09:33:06;101299.44;;;22.10;68.61
30338;BME280;17143;51.888;5.408;2022-10-16T09:48:13;101311.16;;;22.27;68.98
30338;BME280;17143;51.888;5.408;2022-10-16T10:03:30;101314.28;;;23.36;65.43
30338;BME280;17143;51.888;5.408;2022-10-16T10:18:35;101318.75;;;23.37;65.01
30338;BME280;17143;51.888;5.408;2022-10-16T10:33:42;101348.19;;;22.80;64.39
30338;BME280;17143;51.888;5.408;2022-10-16T10:49:04;101350.25;;;23.02;64.01
30338;BME280;17143;51.888;5.408;2022-10-16T11:04:37;101356.06;;;21.13;66.42
30338;BME280;17143;51.888;5.408;2022-10-16T11:19:48;101377.41;;;22.18;65.52
30338;BME280;17143;51.888;5.408;2022-10-16T11:34:57;101382.81;;;21.73;63.21
30338;BME280;17143;51.888;5.408;2022-10-16T11:50:06;101385.44;;;21.72;65.50
30338;BME280;17143;51.888;5.408;2022-10-16T12:05:22;101399.03;;;21.89;66.13
30338;BME280;17143;51.888;5.408;2022-10-16T12:20:28;101404.75;;;22.14;65.10
30338;BME280;17143;51.888;5.408;2022-10-16T12:35:33;101412.38;;;21.93;63.31
30338;BME280;17143;51.888;5.408;2022-10-16T12:50:37;101414.25;;;22.00;62.07
30338;BME280;17143;51.888;5.408;2022-10-16T13:05:52;101415.59;;;22.26;62.08
30338;BME280;17143;51.888;5.408;2022-10-16T13:21:07;101422.16;;;22.51;61.68
30338;BME280;17143;51.888;5.408;2022-10-16T13:36:20;101443.19;;;22.37;60.95
30338;BME280;17143;51.888;5.408;2022-10-16T13:51:22;101437.44;;;22.63;61.74
30338;BME280;17143;51.888;5.408;2022-10-16T14:06:24;101431.38;;;22.73;62.46
30338;BME280;17143;51.888;5.408;2022-10-16T14:21:27;101450.56;;;22.57;61.96
30338;BME280;17143;51.888;5.408;2022-10-16T14:36:30;101423.63;;;22.32;63.15
30338;BME280;17143;51.888;5.408;2022-10-16T14:51:32;101438.19;;;22.03;65.28
30338;BME280;17143;51.888;5.408;2022-10-16T15:06:34;101422.69;;;21.78;65.82
30338;BME280;17143;51.888;5.408;2022-10-16T15:21:36;101424.81;;;21.51;67.32
30338;BME280;17143;51.888;5.408;2022-10-16T15:36:39;101425.75;;;21.53;68.46
30338;BME280;17143;51.888;5.408;2022-10-16T15:51:42;101424.97;;;21.13;69.37
30338;BME280;17143;51.888;5.408;2022-10-16T16:06:44;101444.50;;;20.78;71.30
30338;BME280;17143;51.888;5.408;2022-10-16T16:21:46;101432.84;;;20.33;73.12
30338;BME280;17143;51.888;5.408;2022-10-16T16:36:48;101448.84;;;20.04;74.67
30338;BME280;17143;51.888;5.408;2022-10-16T16:51:50;101454.28;;;19.78;76.27
30338;BME280;17143;51.888;5.408;2022-10-16T17:06:52;101455.59;;;19.31;77.28
30338;BME280;17143;51.888;5.408;2022-10-16T17:21:54;101463.91;;;19.13;78.35
30338;BME280;17143;51.888;5.408;2022-10-16T17:36:56;101472.47;;;18.76;79.91
30338;BME280;17143;51.888;5.408;2022-10-16T17:51:58;101460.47;;;18.59;81.36
30338;BME280;17143;51.888;5.408;2022-10-16T18:07:00;101464.19;;;18.39;82.21
30338;BME280;17143;51.888;5.408;2022-10-16T18:22:02;101491.03;;;18.26;83.88
30338;BME280;17143;51.888;5.408;2022-10-16T18:37:04;101536.59;;;18.22;84.59
30338;BME280;17143;51.888;5.408;2022-10-16T18:52:06;101557.06;;;18.04;86.35
30338;BME280;17143;51.888;5.408;2022-10-16T19:07:08;101534.91;;;17.74;89.16
30338;BME280;17143;51.888;5.408;2022-10-16T19:22:10;101525.59;;;17.59;91.20
30338;BME280;17143;51.888;5.408;2022-10-16T19:37:12;101535.09;;;17.56;91.97
30338;BME280;17143;51.888;5.408;2022-10-16T19:52:14;101563.88;;;17.51;92.57
30338;BME280;17143;51.888;5.408;2022-10-16T20:07:16;101529.91;;;17.35;94.88
30338;BME280;17143;51.888;5.408;2022-10-16T20:22:19;101524.06;;;17.20;95.92
30338;BME280;17143;51.888;5.408;2022-10-16T20:37:20;101517.97;;;16.99;97.95
30338;BME280;17143;51.888;5.408;2022-10-16T20:52:23;101517.59;;;16.90;98.73
30338;BME280;17143;51.888;5.408;2022-10-16T21:07:25;101515.69;;;16.86;99.57
30338;BME280;17143;51.888;5.408;2022-10-16T21:22:29;101517.94;;;16.77;99.71
30338;BME280;17143;51.888;5.408;2022-10-16T21:37:31;101483.50;;;16.71;99.96
30338;BME280;17143;51.888;5.408;2022-10-16T21:52:33;101468.97;;;16.58;100.00
30338;BME280;17143;51.888;5.408;2022-10-16T22:07:35;101482.25;;;16.40;100.00
30338;BME280;17143;51.888;5.408;2022-10-16T22:22:37;101441.22;;;16.23;100.00
30338;BME280;17143;51.888;5.408;2022-10-16T22:37:39;101446.88;;;16.12;100.00
30338;BME280;17143;51.888;5.408;2022-10-16T22:52:41;101458.41;;;15.95;100.00
30338;BME280;17143;51.888;5.408;2022-10-16T23:07:43;101442.28;;;15.86;100.00
30338;BME280;17143;51.888;5.408;2022-10-16T23:22:45;101430.44;;;15.76;100.00
30338;BME280;17143;51.888;5.408;2022-10-16T23:37:47;101421.47;;;15.71;100.00
30338;BME280;17143;51.888;5.408;2022-10-16T23:52:49;101423.03;;;15.66;100.00
